Time;durP1;ratioP1;P1;durP2;ratioP2;P2;SDS_P1;SDS_P2;PMS_P1;PMS_P2;Temp;Humidity;BMP_temperature;BMP_pressure;BME280_temperature;BME280_humidity;BME280_pressure;Samples;Min_cycle;Max_cycle;Signal;HPM_P1;HPM_P2
2020/12/31 00:00:00;;;;;;;2.33;1.42;;;4.00;99.90;;;;;;4970065;28;20206;-67
2020/12/31 00:02:27;;;;;;;3.85;1.92;;;4.00;99.90;;;;;;4951881;28;20256;-70
2020/12/31 00:04:53;;;;;;;2.55;1.60;;;4.00;99.90;;;;;;4965221;28;20210;-71
2020/12/31 00:07:20;;;;;;;24.38;1.90;;;4.10;99.90;;;;;;4970017;28;20218;-71
2020/12/31 00:09:47;;;;;;;4.97;1.85;;;4.10;99.90;;;;;;4970193;28;20205;-71
2020/12/31 00:12:13;;;;;;;1.92;1.15;;;4.10;99.90;;;;;;4988749;28;20198;-71
2020/12/31 00:14:40;;;;;;;4.90;1.60;;;4.10;99.90;;;;;;4985282;28;20284;-70
2020/12/31 00:17:06;;;;;;;3.10;1.88;;;4.20;99.90;;;;;;4988841;28;20752;-69
2020/12/31 00:19:33;;;;;;;4.38;1.90;;;4.20;99.90;;;;;;4966637;28;20290;-71
2020/12/31 00:21:59;;;;;;;6.47;2.20;;;4.20;99.90;;;;;;4973340;28;20732;-70
2020/12/31 00:24:26;;;;;;;5.88;1.80;;;4.20;99.90;;;;;;4968124;28;20572;-69
2020/12/31 00:26:53;;;;;;;3.22;1.42;;;4.20;99.90;;;;;;4953493;28;20229;-70
2020/12/31 00:29:19;;;;;;;1.70;1.23;;;4.20;99.90;;;;;;4968971;28;20209;-72
2020/12/31 00:31:46;;;;;;;3.50;1.10;;;4.20;99.90;;;;;;4984170;28;20564;-70
2020/12/31 00:34:13;;;;;;;3.72;1.25;;;4.20;99.90;;;;;;4955078;28;20220;-71
2020/12/31 00:36:39;;;;;;;2.28;1.48;;;4.20;99.90;;;;;;4970873;28;20201;-70
2020/12/31 00:39:06;;;;;;;2.00;1.42;;;4.20;99.90;;;;;;4968641;28;20221;-70
2020/12/31 00:41:32;;;;;;;6.85;1.70;;;4.20;99.90;;;;;;4980150;28;20216;-70
2020/12/31 00:44:05;;;;;;;2.70;1.38;;;4.20;99.90;;;;;;4952210;28;20230;-69
2020/12/31 00:46:31;;;;;;;5.47;1.75;;;4.20;99.90;;;;;;4971459;28;20639;-69
2020/12/31 00:48:57;;;;;;;2.42;1.42;;;4.20;99.90;;;;;;4974089;28;20201;-72
2020/12/31 00:51:24;;;;;;;4.68;1.70;;;4.30;99.90;;;;;;4969113;28;20194;-70
2020/12/31 00:53:50;;;;;;;4.38;2.05;;;4.30;99.90;;;;;;4967313;28;20582;-70
2020/12/31 00:56:20;;;;;;;4.30;2.28;;;4.30;99.90;;;;;;4967548;28;20787;-71
2020/12/31 00:58:47;;;;;;;3.70;2.33;;;4.30;99.90;;;;;;4949032;28;20253;-70
2020/12/31 01:01:14;;;;;;;4.60;2.38;;;4.30;99.90;;;;;;4952791;28;20222;-70
2020/12/31 01:03:40;;;;;;;5.95;2.80;;;4.40;99.90;;;;;;4968793;28;20213;-70
2020/12/31 01:06:07;;;;;;;6.25;2.80;;;4.40;99.90;;;;;;4968921;28;20217;-69
2020/12/31 01:08:33;;;;;;;6.28;2.70;;;4.40;99.90;;;;;;4966484;28;20210;-69
2020/12/31 01:10:59;;;;;;;3.80;2.45;;;4.40;99.90;;;;;;4968687;28;20256;-70
2020/12/31 01:13:26;;;;;;;5.60;3.05;;;4.40;99.90;;;;;;4970318;28;20257;-70
2020/12/31 01:15:52;;;;;;;5.15;2.85;;;4.40;99.90;;;;;;4968805;28;20210;-70
2020/12/31 01:18:19;;;;;;;9.10;3.55;;;4.50;99.90;;;;;;4953186;28;20292;-71
2020/12/31 01:20:46;;;;;;;7.47;3.50;;;4.50;99.90;;;;;;4973592;28;20205;-69
2020/12/31 01:23:12;;;;;;;6.90;3.55;;;4.50;99.90;;;;;;4969445;28;20210;-69
2020/12/31 01:25:38;;;;;;;6.82;4.22;;;4.50;99.90;;;;;;4967998;28;20214;-71
2020/12/31 01:28:05;;;;;;;6.80;4.32;;;4.50;99.90;;;;;;4972931;28;20202;-68
2020/12/31 01:30:31;;;;;;;9.05;4.85;;;4.50;99.90;;;;;;4972271;28;20221;-70
2020/12/31 01:32:58;;;;;;;11.20;4.80;;;4.50;99.90;;;;;;4956625;28;20257;-70
2020/12/31 01:35:25;;;;;;;8.52;5.32;;;4.50;99.90;;;;;;4973205;28;20201;-69
2020/12/31 01:37:52;;;;;;;7.22;5.15;;;4.50;99.90;;;;;;4973619;28;20572;-69
2020/12/31 01:40:18;;;;;;;8.75;5.10;;;4.50;99.90;;;;;;4986131;28;20230;-70
2020/12/31 01:42:46;;;;;;;10.60;5.25;;;4.50;99.90;;;;;;4973677;28;20260;-72
2020/12/31 01:45:12;;;;;;;8.93;4.97;;;4.50;99.90;;;;;;4985844;28;20212;-72
2020/12/31 01:47:39;;;;;;;11.48;5.18;;;4.50;99.90;;;;;;4973760;28;20210;-70
2020/12/31 01:50:06;;;;;;;8.68;5.22;;;4.50;99.90;;;;;;4977380;28;20213;-71
2020/12/31 01:52:33;;;;;;;10.23;5.15;;;4.50;99.90;;;;;;4966563;28;20198;-72
2020/12/31 01:55:02;;;;;;;10.75;5.45;;;4.50;99.90;;;;;;4971180;28;20202;-71
2020/12/31 01:57:29;;;;;;;7.93;4.40;;;4.50;99.90;;;;;;4971451;28;20633;-70
2020/12/31 01:59:56;;;;;;;9.88;5.07;;;4.50;99.90;;;;;;4976487;28;20202;-71
2020/12/31 02:02:22;;;;;;;9.80;5.57;;;4.50;99.90;;;;;;4972026;28;20229;-70
2020/12/31 02:04:50;;;;;;;10.65;6.07;;;4.50;99.90;;;;;;4973309;28;20548;-71
2020/12/31 02:07:17;;;;;;;11.25;6.32;;;4.50;99.90;;;;;;4967982;28;20318;-71
2020/12/31 02:09:45;;;;;;;13.90;6.05;;;4.50;99.90;;;;;;4970649;28;20202;-71
2020/12/31 02:12:11;;;;;;;11.73;6.82;;;4.60;99.90;;;;;;4971301;28;20658;-69
2020/12/31 02:14:47;;;;;;;15.05;7.10;;;4.60;99.90;;;;;;4973367;28;20213;-70
2020/12/31 02:17:14;;;;;;;17.42;7.43;;;4.60;99.90;;;;;;4953883;28;20264;-70
2020/12/31 02:19:40;;;;;;;11.88;7.72;;;4.60;99.90;;;;;;4977104;28;20674;-69
2020/12/31 02:22:10;;;;;;;11.32;7.47;;;4.60;99.90;;;;;;4971345;28;20253;-70
2020/12/31 02:24:36;;;;;;;8.13;6.32;;;4.60;99.90;;;;;;4989839;28;20193;-70
2020/12/31 02:27:03;;;;;;;10.57;6.57;;;4.60;99.90;;;;;;4956575;28;20226;-71
2020/12/31 02:29:30;;;;;;;11.63;6.93;;;4.50;99.90;;;;;;4975848;28;20202;-70
2020/12/31 02:31:56;;;;;;;9.82;7.03;;;4.50;99.90;;;;;;4986057;28;20224;-72
2020/12/31 02:34:24;;;;;;;11.90;6.30;;;4.60;99.90;;;;;;4991958;28;20205;-70
2020/12/31 02:36:51;;;;;;;8.20;5.68;;;4.50;99.90;;;;;;4976189;28;20220;-70
2020/12/31 02:39:18;;;;;;;7.80;6.00;;;4.50;99.90;;;;;;4986520;28;20209;-69
2020/12/31 02:41:45;;;;;;;10.68;6.30;;;4.50;99.90;;;;;;4982079;28;20670;-70
2020/12/31 02:44:11;;;;;;;9.75;6.28;;;4.50;99.90;;;;;;4992122;28;20551;-70
2020/12/31 02:46:38;;;;;;;9.27;5.70;;;4.50;99.90;;;;;;4967596;28;20221;-70
2020/12/31 02:49:04;;;;;;;8.60;4.55;;;4.50;99.90;;;;;;4955315;28;20202;-70
2020/12/31 02:51:31;;;;;;;6.70;4.75;;;4.50;99.90;;;;;;4970563;28;20260;-70
2020/12/31 02:54:04;;;;;;;5.60;4.28;;;4.40;99.90;;;;;;4972511;28;20198;-70
2020/12/31 02:56:32;;;;;;;7.28;4.25;;;4.40;99.90;;;;;;4970676;28;20272;-69
2020/12/31 02:58:58;;;;;;;6.13;3.22;;;4.40;99.90;;;;;;4973367;28;20625;-70
2020/12/31 03:01:25;;;;;;;7.00;4.13;;;4.40;99.90;;;;;;4977379;28;20237;-71
2020/12/31 03:03:51;;;;;;;10.35;4.00;;;4.40;99.90;;;;;;4969497;28;20752;-70
2020/12/31 03:06:18;;;;;;;5.28;3.42;;;4.40;99.90;;;;;;4978481;28;20232;-73
2020/12/31 03:08:45;;;;;;;7.05;3.50;;;4.40;99.90;;;;;;4968245;28;20221;-72
2020/12/31 03:11:15;;;;;;;5.80;3.42;;;4.40;99.90;;;;;;4958683;28;20213;-71
2020/12/31 03:13:42;;;;;;;7.95;3.35;;;4.40;99.90;;;;;;4953355;28;20210;-72
2020/12/31 03:16:09;;;;;;;5.38;3.65;;;4.40;99.90;;;;;;4968501;28;20650;-71
2020/12/31 03:18:38;;;;;;;10.32;3.67;;;4.50;99.90;;;;;;4971981;28;20206;-71
2020/12/31 03:21:04;;;;;;;8.18;3.28;;;4.50;99.90;;;;;;4953948;28;20264;-71
2020/12/31 03:23:32;;;;;;;4.70;3.40;;;4.50;99.90;;;;;;4972026;28;20264;-71
2020/12/31 03:25:58;;;;;;;7.97;4.18;;;4.50;99.90;;;;;;4968964;28;20276;-74
2020/12/31 03:28:25;;;;;;;7.10;3.80;;;4.50;99.90;;;;;;4954438;28;20198;-73
2020/12/31 03:30:52;;;;;;;8.13;4.50;;;4.50;99.90;;;;;;4953250;28;20887;-72
2020/12/31 03:33:19;;;;;;;8.05;4.95;;;4.50;99.90;;;;;;4970659;28;20189;-71
2020/12/31 03:35:47;;;;;;;9.57;4.80;;;4.50;99.90;;;;;;4956632;28;20220;-72
2020/12/31 03:38:16;;;;;;;7.20;4.63;;;4.50;99.90;;;;;;4971506;28;20573;-72
2020/12/31 03:40:43;;;;;;;7.78;4.65;;;4.50;99.90;;;;;;4952444;28;20210;-73
2020/12/31 03:43:10;;;;;;;8.90;4.60;;;4.50;99.90;;;;;;4970384;28;20226;-72
2020/12/31 03:45:37;;;;;;;8.93;5.35;;;4.50;99.90;;;;;;4953352;28;20260;-72
2020/12/31 03:48:05;;;;;;;8.60;5.28;;;4.50;99.90;;;;;;4971364;28;20588;-73
2020/12/31 03:50:32;;;;;;;7.95;5.65;;;4.50;99.90;;;;;;4952458;28;20210;-73
2020/12/31 03:52:58;;;;;;;9.10;6.32;;;4.50;99.90;;;;;;4971183;28;20194;-72
2020/12/31 03:55:28;;;;;;;11.40;6.43;;;4.40;99.90;;;;;;4968518;28;20210;-74
2020/12/31 03:57:54;;;;;;;9.40;6.85;;;4.40;99.90;;;;;;4971371;28;20197;-73
2020/12/31 04:00:21;;;;;;;13.70;7.53;;;4.40;99.90;;;;;;4952010;28;20837;-74
2020/12/31 04:02:47;;;;;;;12.45;7.85;;;4.40;99.90;;;;;;4971350;28;21072;-71
2020/12/31 04:05:14;;;;;;;14.70;10.20;;;4.40;99.90;;;;;;4969920;28;20198;-72
2020/12/31 04:07:41;;;;;;;15.88;10.98;;;4.40;99.90;;;;;;4966991;28;20228;-71
2020/12/31 04:10:07;;;;;;;19.77;13.13;;;4.40;99.90;;;;;;4968569;28;20225;-72
2020/12/31 04:12:33;;;;;;;19.13;12.55;;;4.40;99.90;;;;;;4970120;28;20206;-71
2020/12/31 04:15:00;;;;;;;21.40;13.90;;;4.40;99.90;;;;;;4968287;28;20206;-73
2020/12/31 04:17:26;;;;;;;19.92;14.45;;;4.40;99.90;;;;;;4970331;28;20565;-71
2020/12/31 04:19:53;;;;;;;21.45;13.65;;;4.40;99.90;;;;;;4971136;28;20285;-73
2020/12/31 04:22:20;;;;;;;21.70;14.95;;;4.40;99.90;;;;;;4969496;28;20197;-72
2020/12/31 04:24:46;;;;;;;22.20;14.45;;;4.40;99.90;;;;;;4985164;28;20216;-74
2020/12/31 04:27:13;;;;;;;23.00;15.55;;;4.30;99.90;;;;;;4973214;28;20225;-73
2020/12/31 04:29:39;;;;;;;22.77;15.65;;;4.30;99.90;;;;;;4975890;28;20198;-72
2020/12/31 04:32:06;;;;;;;26.17;15.63;;;4.30;99.90;;;;;;4982021;28;20225;-73
2020/12/31 04:34:32;;;;;;;25.15;16.60;;;4.30;99.90;;;;;;4970709;28;20673;-70
2020/12/31 04:36:58;;;;;;;25.48;17.55;;;4.30;99.90;;;;;;4968101;28;20206;-71
2020/12/31 04:39:26;;;;;;;29.70;18.13;;;4.30;99.90;;;;;;4970612;28;20225;-70
2020/12/31 04:41:56;;;;;;;28.50;18.25;;;4.30;99.90;;;;;;4969101;28;20269;-71
2020/12/31 04:44:23;;;;;;;26.15;17.27;;;4.30;99.90;;;;;;4982907;28;20201;-73
2020/12/31 04:46:54;;;;;;;25.98;17.20;;;4.30;99.90;;;;;;4966392;28;20253;-72
2020/12/31 04:49:21;;;;;;;29.52;18.60;;;4.30;99.90;;;;;;4982237;28;20669;-71
2020/12/31 04:51:49;;;;;;;24.85;17.13;;;4.30;99.90;;;;;;4954934;28;20217;-72
2020/12/31 04:54:16;;;;;;;26.50;17.35;;;4.30;99.90;;;;;;4970722;28;20229;-71
2020/12/31 04:56:44;;;;;;;26.35;17.83;;;4.30;99.90;;;;;;4968964;28;20249;-72
2020/12/31 04:59:11;;;;;;;28.48;18.88;;;4.30;99.90;;;;;;4968396;28;20209;-73
2020/12/31 05:01:40;;;;;;;28.23;18.00;;;4.30;99.90;;;;;;4972951;28;20686;-70
2020/12/31 05:04:06;;;;;;;29.90;19.38;;;4.30;99.90;;;;;;4990941;28;20197;-71
2020/12/31 05:06:35;;;;;;;31.33;20.45;;;4.30;99.90;;;;;;4990476;28;20681;-71
2020/12/31 05:09:13;;;;;;;29.58;18.77;;;4.30;99.90;;;;;;4972357;28;20957;-70
2020/12/31 05:11:48;;;;;;;31.92;19.45;;;4.20;99.90;;;;;;4972556;28;20221;-71
2020/12/31 05:14:26;;;;;;;30.25;19.80;;;4.20;99.90;;;;;;4956928;28;20690;-71
2020/12/31 05:16:53;;;;;;;29.55;19.40;;;4.20;99.90;;;;;;4972260;28;20209;-72
2020/12/31 05:19:21;;;;;;;28.20;18.75;;;4.20;99.90;;;;;;4974129;28;20204;-72
2020/12/31 05:21:48;;;;;;;29.10;19.40;;;4.20;99.90;;;;;;4971490;28;20659;-73
2020/12/31 05:24:14;;;;;;;30.42;19.35;;;4.20;99.90;;;;;;4974249;28;20204;-72
2020/12/31 05:26:41;;;;;;;31.05;18.88;;;4.20;99.90;;;;;;4970160;28;20229;-71
2020/12/31 05:29:08;;;;;;;29.67;19.10;;;4.10;99.90;;;;;;4973984;28;20280;-72
2020/12/31 05:31:54;;;;;;;29.92;19.42;;;4.10;99.90;;;;;;4976068;28;20287;-70
2020/12/31 05:34:30;;;;;;;28.25;19.23;;;4.10;99.90;;;;;;4984632;28;20201;-72
2020/12/31 05:37:13;;;;;;;32.55;20.05;;;4.10;99.90;;;;;;4956366;28;20198;-71
2020/12/31 05:39:58;;;;;;;31.02;20.40;;;4.10;99.90;;;;;;4991644;28;20198;-70
2020/12/31 05:42:24;;;;;;;36.53;19.70;;;4.20;99.90;;;;;;4965758;28;20214;-71
2020/12/31 05:45:00;;;;;;;32.15;19.73;;;4.20;99.90;;;;;;4979106;28;20201;-70
2020/12/31 05:47:26;;;;;;;34.70;21.30;;;4.20;99.90;;;;;;4955505;28;20721;-71
2020/12/31 05:49:53;;;;;;;33.05;20.70;;;4.20;99.90;;;;;;4958460;28;20209;-71
2020/12/31 05:52:33;;;;;;;31.90;20.77;;;4.30;99.90;;;;;;4955173;28;20194;-71
2020/12/31 05:55:03;;;;;;;35.10;21.20;;;4.30;99.90;;;;;;4970669;28;20287;-71
2020/12/31 05:57:43;;;;;;;34.33;20.75;;;4.30;99.90;;;;;;4969395;28;20210;-69
2020/12/31 06:00:13;;;;;;;30.83;20.08;;;4.30;99.90;;;;;;4957692;28;20198;-71
2020/12/31 06:02:44;;;;;;;31.95;19.75;;;4.40;99.90;;;;;;4974048;28;20618;-71
2020/12/31 06:05:14;;;;;;;32.67;20.05;;;4.40;99.90;;;;;;4971198;28;20206;-71
2020/12/31 06:07:46;;;;;;;31.95;19.75;;;4.40;99.90;;;;;;4971457;28;20214;-73
2020/12/31 06:10:18;;;;;;;30.33;19.48;;;4.50;99.90;;;;;;4954822;28;20681;-70
2020/12/31 06:12:53;;;;;;;33.30;20.05;;;4.50;99.90;;;;;;4970786;28;20209;-72
2020/12/31 06:15:26;;;;;;;32.70;19.92;;;4.50;99.90;;;;;;4958883;28;20700;-71
2020/12/31 06:17:53;;;;;;;32.47;20.23;;;4.50;99.90;;;;;;4954139;28;20276;-70
2020/12/31 06:20:20;;;;;;;31.90;19.75;;;4.60;99.90;;;;;;4972983;28;20265;-71
2020/12/31 06:22:58;;;;;;;33.63;20.55;;;4.50;99.90;;;;;;4971318;28;20222;-70
2020/12/31 06:25:33;;;;;;;31.35;20.52;;;4.60;99.90;;;;;;4969966;28;20210;-72
2020/12/31 06:28:05;;;;;;;33.20;19.92;;;4.60;99.90;;;;;;4971129;28;20271;-72
2020/12/31 06:30:33;;;;;;;30.48;19.92;;;4.60;99.90;;;;;;4955345;28;20204;-71
2020/12/31 06:33:03;;;;;;;32.65;20.23;;;4.60;99.90;;;;;;4972675;28;20318;-71
2020/12/31 06:35:31;;;;;;;30.20;19.60;;;4.70;99.90;;;;;;4972688;28;20205;-70
2020/12/31 06:37:58;;;;;;;35.55;21.60;;;4.70;99.90;;;;;;4954605;28;20268;-72
2020/12/31 06:40:26;;;;;;;34.95;20.40;;;4.70;99.90;;;;;;4972823;28;20213;-72
2020/12/31 06:43:07;;;;;;;33.35;20.63;;;4.70;99.90;;;;;;4954366;28;20250;-73
2020/12/31 06:45:39;;;;;;;33.60;19.27;;;4.70;99.90;;;;;;4955056;28;20205;-72
2020/12/31 06:48:39;;;;;;;34.00;20.75;;;4.70;99.90;;;;;;4970921;28;20571;-70
2020/12/31 06:51:10;;;;;;;33.13;19.92;;;4.70;99.90;;;;;;4969683;28;20638;-70
2020/12/31 06:53:38;;;;;;;34.90;20.08;;;4.70;99.90;;;;;;4957427;28;20206;-70
2020/12/31 06:56:06;;;;;;;31.10;20.35;;;4.70;99.90;;;;;;4955046;28;20649;-72
2020/12/31 06:58:33;;;;;;;32.85;19.83;;;4.70;99.90;;;;;;4972328;28;20257;-72
2020/12/31 07:01:01;;;;;;;34.20;20.23;;;4.70;99.90;;;;;;4972091;28;20221;-71
2020/12/31 07:03:49;;;;;;;35.35;20.95;;;4.70;99.90;;;;;;4974172;28;20202;-72
2020/12/31 07:06:32;;;;;;;33.22;19.40;;;4.70;99.90;;;;;;4961474;28;20303;-72
2020/12/31 07:09:02;;;;;;;35.22;20.13;;;4.70;99.90;;;;;;4979047;28;20205;-73
2020/12/31 07:11:29;;;;;;;31.63;19.33;;;4.60;99.90;;;;;;4957345;28;20208;-73
2020/12/31 07:13:56;;;;;;;30.90;18.90;;;4.60;99.90;;;;;;4969041;28;20198;-72
2020/12/31 07:16:46;;;;;;;31.35;18.98;;;4.60;99.90;;;;;;4971435;28;20725;-71
2020/12/31 07:19:13;;;;;;;31.42;18.85;;;4.60;99.90;;;;;;4971339;28;20197;-71
2020/12/31 07:21:39;;;;;;;32.65;18.50;;;4.50;99.90;;;;;;4970424;28;20207;-72
2020/12/31 07:24:31;;;;;;;36.80;18.70;;;4.50;99.90;;;;;;4969720;28;20210;-74
2020/12/31 07:26:59;;;;;;;32.60;19.00;;;4.40;99.90;;;;;;4931314;28;20226;-71
2020/12/31 07:29:35;;;;;;;32.40;18.85;;;4.40;99.90;;;;;;4971999;28;20549;-72
2020/12/31 07:32:03;;;;;;;32.72;18.10;;;4.40;99.90;;;;;;4976794;28;20201;-69
2020/12/31 07:34:31;;;;;;;29.90;17.48;;;4.40;99.90;;;;;;4971684;28;20202;-72
2020/12/31 07:37:03;;;;;;;28.27;17.15;;;4.30;99.90;;;;;;4965951;28;20218;-72
2020/12/31 07:39:30;;;;;;;29.75;16.67;;;4.30;99.90;;;;;;4978704;28;20204;-70
2020/12/31 07:42:13;;;;;;;32.53;17.92;;;4.20;99.90;;;;;;4984532;28;20210;-71
2020/12/31 07:44:50;;;;;;;28.75;17.42;;;4.20;99.90;;;;;;4950537;28;20240;-69
2020/12/31 07:47:55;;;;;;;34.75;17.77;;;4.20;99.90;;;;;;4969104;28;20633;-72
2020/12/31 07:50:22;;;;;;;37.10;20.13;;;4.10;99.90;;;;;;4971035;28;20220;-72
2020/12/31 07:52:48;;;;;;;35.85;19.83;;;4.10;99.90;;;;;;4980540;28;20212;-71
2020/12/31 07:55:15;;;;;;;32.70;19.83;;;4.10;99.90;;;;;;4969672;28;20201;-69
2020/12/31 07:57:42;;;;;;;34.38;20.13;;;4.00;99.90;;;;;;4968361;28;20257;-71
2020/12/31 08:00:12;;;;;;;31.75;19.42;;;4.00;99.90;;;;;;4974008;28;20198;-70
2020/12/31 08:02:45;;;;;;;34.83;19.40;;;4.00;99.90;;;;;;4969373;28;20292;-71
2020/12/31 08:05:13;;;;;;;34.15;20.40;;;4.00;99.90;;;;;;4953785;28;20201;-70
2020/12/31 08:07:41;;;;;;;36.50;20.70;;;3.90;99.90;;;;;;4967379;28;20218;-70
2020/12/31 08:10:08;;;;;;;34.13;19.55;;;3.90;99.90;;;;;;4973071;28;20233;-72
2020/12/31 08:12:35;;;;;;;38.67;20.08;;;3.90;99.90;;;;;;4990335;28;20981;-70
2020/12/31 08:15:02;;;;;;;37.83;21.70;;;3.90;99.90;;;;;;4977810;28;20198;-70
2020/12/31 08:17:28;;;;;;;48.05;24.00;;;3.90;99.90;;;;;;4970619;28;20208;-70
2020/12/31 08:19:55;;;;;;;44.67;23.50;;;3.90;99.90;;;;;;4974887;28;20552;-70
2020/12/31 08:22:30;;;;;;;38.03;23.08;;;3.90;99.90;;;;;;4990517;28;20204;-71
2020/12/31 08:25:02;;;;;;;45.45;23.65;;;3.90;99.90;;;;;;4957791;28;20201;-73
2020/12/31 08:27:30;;;;;;;44.22;24.25;;;3.90;99.90;;;;;;4971539;28;20772;-72
2020/12/31 08:29:57;;;;;;;36.35;23.63;;;3.90;99.90;;;;;;4971430;28;20209;-71
2020/12/31 08:32:26;;;;;;;43.72;24.20;;;3.90;99.90;;;;;;4971547;28;20224;-72
2020/12/31 08:34:55;;;;;;;40.55;23.10;;;3.90;99.90;;;;;;4970206;28;20210;-70
2020/12/31 08:37:25;;;;;;;40.58;22.83;;;3.90;99.90;;;;;;4970688;28;20190;-70
2020/12/31 08:39:53;;;;;;;38.97;22.70;;;3.90;99.90;;;;;;4969194;28;20198;-71
2020/12/31 08:42:21;;;;;;;39.25;23.38;;;3.90;99.90;;;;;;4952681;28;20210;-71
2020/12/31 08:44:55;;;;;;;40.72;23.77;;;3.80;99.90;;;;;;4969809;28;21129;-68
2020/12/31 08:47:35;;;;;;;49.70;27.15;;;3.90;99.90;;;;;;5131563;27;20610;-72
2020/12/31 08:50:02;;;;;;;45.35;25.10;;;3.80;99.90;;;;;;5127507;27;20209;-72
2020/12/31 08:52:28;;;;;;;40.90;23.67;;;3.80;99.90;;;;;;5128412;27;20200;-70
2020/12/31 08:55:12;;;;;;;49.03;28.38;;;3.80;99.90;;;;;;5136051;27;20212;-71
2020/12/31 08:57:39;;;;;;;57.45;32.40;;;3.80;99.90;;;;;;5128369;27;20208;-71
2020/12/31 09:00:06;;;;;;;56.53;30.73;;;3.80;99.90;;;;;;5126269;27;20200;-70
2020/12/31 09:02:33;;;;;;;49.97;28.95;;;3.80;99.90;;;;;;5126786;27;20246;-73
2020/12/31 09:05:14;;;;;;;46.97;27.27;;;3.90;99.90;;;;;;5126154;27;20261;-71
2020/12/31 09:07:41;;;;;;;47.47;26.10;;;3.90;99.90;;;;;;5127207;27;20656;-71
2020/12/31 09:10:30;;;;;;;51.28;26.88;;;3.90;99.90;;;;;;5131503;27;20208;-71
2020/12/31 09:12:57;;;;;;;67.78;36.75;;;3.90;99.90;;;;;;5103132;28;20671;-69
2020/12/31 09:15:23;;;;;;;50.20;30.23;;;4.00;99.90;;;;;;5126242;27;20211;-71
2020/12/31 09:17:50;;;;;;;48.58;28.38;;;4.00;99.90;;;;;;5143888;27;20192;-70
2020/12/31 09:20:22;;;;;;;50.70;28.58;;;4.00;99.90;;;;;;5135424;27;20204;-69
2020/12/31 09:22:49;;;;;;;45.80;24.85;;;4.00;99.90;;;;;;5142056;27;20699;-71
2020/12/31 09:25:15;;;;;;;45.90;25.90;;;4.10;99.90;;;;;;5113555;28;20307;-70
2020/12/31 09:27:45;;;;;;;43.92;24.25;;;4.10;99.90;;;;;;5127844;27;20250;-72
2020/12/31 09:30:13;;;;;;;41.05;24.25;;;4.20;99.90;;;;;;5117194;27;20206;-70
2020/12/31 09:32:44;;;;;;;42.25;23.52;;;4.20;99.90;;;;;;5127672;27;20660;-71
2020/12/31 09:35:10;;;;;;;42.40;23.73;;;4.30;99.90;;;;;;5128013;27;20686;-72
2020/12/31 09:37:53;;;;;;;39.47;24.08;;;4.30;99.90;;;;;;5137399;27;20590;-70
2020/12/31 09:40:19;;;;;;;46.58;25.75;;;4.30;99.90;;;;;;5133805;27;20249;-71
2020/12/31 09:42:45;;;;;;;45.88;25.98;;;4.40;99.90;;;;;;5127445;27;20196;-70
2020/12/31 09:45:12;;;;;;;45.58;25.88;;;4.40;99.90;;;;;;5125389;27;20192;-71
2020/12/31 09:47:39;;;;;;;42.88;25.27;;;4.50;99.90;;;;;;5124872;27;20197;-70
2020/12/31 09:50:06;;;;;;;41.63;25.25;;;4.60;99.90;;;;;;5107111;28;20204;-69
2020/12/31 09:52:33;;;;;;;46.85;25.42;;;4.60;99.90;;;;;;5121559;27;20235;-72
2020/12/31 09:55:00;;;;;;;41.55;24.85;;;4.70;99.90;;;;;;5125455;27;20570;-71
2020/12/31 09:57:27;;;;;;;47.50;27.25;;;4.80;99.90;;;;;;5119394;27;20204;-70
2020/12/31 09:59:53;;;;;;;44.97;26.90;;;4.90;99.90;;;;;;5109958;28;20197;-71
2020/12/31 10:02:19;;;;;;;43.67;26.35;;;5.00;99.90;;;;;;5106460;28;20619;-70
2020/12/31 10:04:46;;;;;;;43.78;24.77;;;5.00;99.90;;;;;;5106950;28;20250;-70
2020/12/31 10:07:12;;;;;;;37.28;23.95;;;5.10;99.90;;;;;;5095084;28;20252;-71
2020/12/31 10:09:39;;;;;;;41.72;24.90;;;5.10;99.90;;;;;;5109660;28;20203;-72
2020/12/31 10:12:06;;;;;;;37.92;24.83;;;5.20;99.90;;;;;;5108183;28;20576;-72
2020/12/31 10:14:32;;;;;;;111.95;58.35;;;5.20;99.90;;;;;;5111637;28;20246;-71
2020/12/31 10:16:59;;;;;;;56.42;31.88;;;5.20;99.90;;;;;;5113312;28;20563;-69
2020/12/31 10:19:25;;;;;;;213.25;111.18;;;5.30;99.90;;;;;;5091851;28;20684;-74
2020/12/31 10:21:52;;;;;;;49.60;26.83;;;5.30;99.90;;;;;;5112757;28;20201;-71
2020/12/31 10:24:18;;;;;;;40.25;26.75;;;5.30;99.90;;;;;;5107372;28;20219;-72
2020/12/31 10:26:46;;;;;;;58.25;31.23;;;5.30;99.90;;;;;;5088725;28;20329;-71
2020/12/31 10:29:14;;;;;;;81.47;46.65;;;5.30;99.90;;;;;;5107512;27;20223;-70
2020/12/31 10:31:42;;;;;;;121.30;68.53;;;5.30;99.90;;;;;;5107560;28;20209;-73
2020/12/31 10:34:08;;;;;;;128.13;68.63;;;5.30;99.90;;;;;;5109481;28;20197;-73
2020/12/31 10:36:35;;;;;;;377.77;240.23;;;5.30;99.90;;;;;;5107267;27;20188;-75
2020/12/31 10:39:02;;;;;;;71.57;44.88;;;5.30;99.90;;;;;;5108740;28;20267;-73
2020/12/31 10:41:29;;;;;;;52.78;32.88;;;5.30;99.90;;;;;;5112488;28;20694;-71
2020/12/31 10:43:56;;;;;;;44.28;27.48;;;5.30;99.90;;;;;;5111674;28;20280;-71
2020/12/31 10:46:25;;;;;;;42.45;25.98;;;5.30;99.90;;;;;;5111353;28;20228;-73
2020/12/31 10:48:54;;;;;;;40.08;25.73;;;5.40;99.90;;;;;;5090791;28;20212;-71
2020/12/31 10:51:21;;;;;;;43.67;26.27;;;5.40;99.90;;;;;;5106223;28;20198;-72
2020/12/31 10:53:47;;;;;;;41.17;27.17;;;5.40;99.90;;;;;;5106360;28;20194;-72
2020/12/31 10:56:18;;;;;;;41.85;27.23;;;5.30;99.90;;;;;;5127393;27;20197;-72
2020/12/31 10:58:45;;;;;;;45.50;27.00;;;5.30;99.90;;;;;;5090743;28;20239;-72
2020/12/31 11:01:13;;;;;;;46.58;27.23;;;5.30;99.90;;;;;;5105044;28;20681;-71
2020/12/31 11:03:42;;;;;;;45.97;27.83;;;5.40;99.90;;;;;;5093987;28;20670;-71
2020/12/31 11:06:08;;;;;;;47.00;27.67;;;5.40;99.90;;;;;;5110133;28;20681;-70
2020/12/31 11:08:35;;;;;;;50.03;27.35;;;5.40;99.90;;;;;;5115241;27;20206;-71
2020/12/31 11:11:01;;;;;;;46.92;29.77;;;5.40;99.90;;;;;;5121411;27;20569;-70
2020/12/31 11:13:27;;;;;;;45.50;30.00;;;5.40;99.90;;;;;;5090314;28;20281;-71
2020/12/31 11:15:54;;;;;;;52.05;29.95;;;5.40;99.90;;;;;;5115907;27;20700;-72
2020/12/31 11:18:20;;;;;;;53.03;31.13;;;5.30;99.90;;;;;;5124857;27;20201;-70
2020/12/31 11:20:52;;;;;;;50.70;30.67;;;5.30;99.90;;;;;;5105335;27;20201;-71
2020/12/31 11:23:18;;;;;;;49.75;29.65;;;5.30;99.90;;;;;;5113829;27;20635;-69
2020/12/31 11:25:45;;;;;;;51.25;29.67;;;5.30;99.90;;;;;;5114543;27;20262;-70
2020/12/31 11:28:11;;;;;;;52.22;30.75;;;5.30;99.90;;;;;;5093414;28;20193;-71
2020/12/31 11:30:37;;;;;;;51.90;31.73;;;5.40;99.90;;;;;;5106094;28;20209;-69
2020/12/31 11:33:04;;;;;;;51.22;31.40;;;5.40;99.90;;;;;;5112131;28;20250;-71
2020/12/31 11:35:30;;;;;;;54.85;31.83;;;5.40;99.90;;;;;;5118443;27;20201;-70
2020/12/31 11:37:57;;;;;;;53.35;30.52;;;5.40;99.90;;;;;;5105131;28;20239;-71
2020/12/31 11:40:23;;;;;;;50.72;31.50;;;5.50;99.90;;;;;;5108603;28;20201;-69
2020/12/31 11:42:50;;;;;;;52.67;31.88;;;5.50;99.90;;;;;;5093190;28;20197;-71
2020/12/31 11:45:16;;;;;;;54.33;31.33;;;5.50;99.90;;;;;;5091146;28;20200;-71
2020/12/31 11:47:42;;;;;;;47.92;29.58;;;5.60;99.90;;;;;;5111481;28;20840;-71
2020/12/31 11:50:09;;;;;;;49.50;29.30;;;5.60;99.90;;;;;;5087924;28;20209;-70
2020/12/31 11:52:35;;;;;;;52.67;31.02;;;5.70;99.90;;;;;;5092496;28;20201;-72
2020/12/31 11:55:03;;;;;;;47.92;30.63;;;5.70;99.90;;;;;;5102102;27;20197;-71
2020/12/31 11:57:30;;;;;;;52.53;32.08;;;5.80;99.90;;;;;;5109713;28;20197;-70
2020/12/31 11:59:56;;;;;;;51.10;31.80;;;5.80;99.90;;;;;;5091745;28;20246;-70
2020/12/31 12:02:22;;;;;;;58.45;32.58;;;5.90;99.90;;;;;;5110374;28;20190;-75
2020/12/31 12:04:49;;;;;;;49.72;29.92;;;6.00;99.90;;;;;;5089302;28;20205;-74
2020/12/31 12:07:15;;;;;;;49.08;30.23;;;6.00;99.90;;;;;;5109168;28;20228;-71
2020/12/31 12:09:42;;;;;;;46.08;28.27;;;6.10;99.90;;;;;;5092675;28;20589;-71
2020/12/31 12:12:09;;;;;;;42.35;27.02;;;6.10;99.90;;;;;;5091094;28;20316;-72
2020/12/31 12:14:36;;;;;;;45.55;27.30;;;6.20;99.90;;;;;;5090092;28;20700;-72
2020/12/31 12:17:02;;;;;;;41.92;26.92;;;6.20;99.90;;;;;;5109299;28;20204;-73
2020/12/31 12:19:28;;;;;;;50.25;29.10;;;6.20;99.90;;;;;;5111134;28;20262;-73
2020/12/31 12:21:58;;;;;;;44.50;27.05;;;6.30;99.90;;;;;;5108483;28;20212;-71
2020/12/31 12:24:24;;;;;;;47.25;27.05;;;6.30;99.90;;;;;;5110688;28;20284;-71
2020/12/31 12:26:50;;;;;;;37.28;23.90;;;6.40;99.90;;;;;;5110683;27;20213;-72
2020/12/31 12:29:18;;;;;;;36.17;22.17;;;6.40;99.90;;;;;;5130502;27;20652;-70
2020/12/31 12:31:44;;;;;;;41.08;24.25;;;6.50;99.90;;;;;;5113251;27;20217;-71
2020/12/31 12:34:11;;;;;;;45.25;26.23;;;6.50;99.90;;;;;;5110823;28;20264;-72
2020/12/31 12:36:37;;;;;;;48.45;28.25;;;6.50;99.90;;;;;;5109355;28;20197;-71
2020/12/31 12:39:05;;;;;;;49.05;27.27;;;6.60;99.90;;;;;;5108626;28;20196;-71
2020/12/31 12:41:32;;;;;;;38.50;22.33;;;6.60;99.90;;;;;;5109144;28;20657;-71
2020/12/31 12:43:58;;;;;;;39.22;24.25;;;6.60;99.90;;;;;;5108099;28;20580;-71
2020/12/31 12:46:25;;;;;;;73.63;39.10;;;6.60;99.90;;;;;;5108643;28;20240;-71
2020/12/31 12:48:52;;;;;;;42.53;26.48;;;6.60;99.90;;;;;;5110528;28;20571;-71